sensor_id;sensor_type;location;lat;lon;timestamp;pressure;altitude;pressure_sealevel;temperature;humidity
75940;BME280;75809;44.872;20.642;2024-03-07T00:02:20;100317.22;;;9.01;72.02
75940;BME280;75809;44.872;20.642;2024-03-07T00:04:45;100311.59;;;8.91;72.45
75940;BME280;75809;44.872;20.642;2024-03-07T00:07:11;100304.63;;;8.90;72.56
75940;BME280;75809;44.872;20.642;2024-03-07T00:09:37;100318.88;;;8.86;72.66
75940;BME280;75809;44.872;20.642;2024-03-07T00:12:04;100309.38;;;8.83;72.59
75940;BME280;75809;44.872;20.642;2024-03-07T00:14:31;100308.66;;;8.80;73.25
75940;BME280;75809;44.872;20.642;2024-03-07T00:16:57;100302.31;;;8.84;73.16
75940;BME280;75809;44.872;20.642;2024-03-07T00:19:24;100311.66;;;8.89;72.81
75940;BME280;75809;44.872;20.642;2024-03-07T00:21:52;100304.88;;;8.85;73.05
75940;BME280;75809;44.872;20.642;2024-03-07T00:24:19;100299.69;;;8.84;73.22
75940;BME280;75809;44.872;20.642;2024-03-07T00:26:44;100308.53;;;8.83;73.27
75940;BME280;75809;44.872;20.642;2024-03-07T00:29:10;100311.84;;;8.86;73.33
75940;BME280;75809;44.872;20.642;2024-03-07T00:31:35;100297.91;;;8.84;73.07
75940;BME280;75809;44.872;20.642;2024-03-07T00:34:01;100305.91;;;8.83;73.19
75940;BME280;75809;44.872;20.642;2024-03-07T00:36:26;100302.47;;;8.81;73.23
75940;BME280;75809;44.872;20.642;2024-03-07T00:38:52;100299.81;;;8.81;73.04
75940;BME280;75809;44.872;20.642;2024-03-07T00:41:18;100300.69;;;8.81;73.26
75940;BME280;75809;44.872;20.642;2024-03-07T00:43:44;100287.50;;;8.81;73.69
75940;BME280;75809;44.872;20.642;2024-03-07T00:46:09;100292.72;;;8.83;73.24
75940;BME280;75809;44.872;20.642;2024-03-07T00:48:36;100286.94;;;8.92;73.61
75940;BME280;75809;44.872;20.642;2024-03-07T00:51:03;100285.91;;;9.27;72.38
75940;BME280;75809;44.872;20.642;2024-03-07T00:53:29;100286.84;;;9.26;71.74
75940;BME280;75809;44.872;20.642;2024-03-07T00:55:55;100286.22;;;9.21;71.40
75940;BME280;75809;44.872;20.642;2024-03-07T00:58:20;100281.31;;;9.15;72.24
75940;BME280;75809;44.872;20.642;2024-03-07T01:00:46;100281.53;;;9.11;72.48
75940;BME280;75809;44.872;20.642;2024-03-07T01:03:11;100283.59;;;9.06;72.75
75940;BME280;75809;44.872;20.642;2024-03-07T01:05:39;100283.69;;;9.04;72.45
75940;BME280;75809;44.872;20.642;2024-03-07T01:08:05;100290.66;;;9.05;73.05
75940;BME280;75809;44.872;20.642;2024-03-07T01:10:30;100288.88;;;9.06;72.91
75940;BME280;75809;44.872;20.642;2024-03-07T01:12:56;100285.97;;;9.10;73.09
75940;BME280;75809;44.872;20.642;2024-03-07T01:15:26;100269.13;;;9.13;72.96
75940;BME280;75809;44.872;20.642;2024-03-07T01:17:52;100276.19;;;9.12;73.26
75940;BME280;75809;44.872;20.642;2024-03-07T01:20:17;100266.09;;;9.20;72.58
75940;BME280;75809;44.872;20.642;2024-03-07T01:22:43;100269.47;;;9.22;73.30
75940;BME280;75809;44.872;20.642;2024-03-07T01:25:09;100264.38;;;9.19;73.16
75940;BME280;75809;44.872;20.642;2024-03-07T01:27:34;100272.22;;;9.21;73.05
75940;BME280;75809;44.872;20.642;2024-03-07T01:30:00;100266.00;;;9.22;73.08
75940;BME280;75809;44.872;20.642;2024-03-07T01:32:28;100274.75;;;9.22;73.04
75940;BME280;75809;44.872;20.642;2024-03-07T01:34:55;100268.41;;;9.26;72.64
75940;BME280;75809;44.872;20.642;2024-03-07T01:37:21;100265.91;;;9.23;73.05
75940;BME280;75809;44.872;20.642;2024-03-07T01:39:46;100258.09;;;9.22;73.08
75940;BME280;75809;44.872;20.642;2024-03-07T01:42:13;100256.91;;;9.27;72.96
75940;BME280;75809;44.872;20.642;2024-03-07T01:44:38;100257.59;;;9.31;72.90
75940;BME280;75809;44.872;20.642;2024-03-07T01:47:07;100251.28;;;9.34;72.20
75940;BME280;75809;44.872;20.642;2024-03-07T01:49:33;100250.22;;;9.38;72.88
75940;BME280;75809;44.872;20.642;2024-03-07T01:51:59;100247.72;;;9.35;72.51
75940;BME280;75809;44.872;20.642;2024-03-07T01:54:25;100245.19;;;9.33;72.36
75940;BME280;75809;44.872;20.642;2024-03-07T01:56:51;100237.03;;;9.38;71.88
75940;BME280;75809;44.872;20.642;2024-03-07T01:59:18;100233.44;;;9.39;72.21
75940;BME280;75809;44.872;20.642;2024-03-07T02:01:46;100240.59;;;9.37;72.24
75940;BME280;75809;44.872;20.642;2024-03-07T02:04:12;100237.97;;;9.37;72.06
75940;BME280;75809;44.872;20.642;2024-03-07T02:06:38;100244.31;;;9.33;72.08
75940;BME280;75809;44.872;20.642;2024-03-07T02:09:03;100237.34;;;9.32;72.03
75940;BME280;75809;44.872;20.642;2024-03-07T02:11:31;100240.94;;;9.31;72.16
75940;BME280;75809;44.872;20.642;2024-03-07T02:13:56;100252.66;;;9.25;72.48
75940;BME280;75809;44.872;20.642;2024-03-07T02:16:22;100252.81;;;9.22;72.64
75940;BME280;75809;44.872;20.642;2024-03-07T02:18:48;100247.63;;;9.20;72.73
75940;BME280;75809;44.872;20.642;2024-03-07T02:21:15;100250.88;;;9.25;72.62
75940;BME280;75809;44.872;20.642;2024-03-07T02:23:41;100256.84;;;9.29;72.08
75940;BME280;75809;44.872;20.642;2024-03-07T02:26:07;100251.66;;;9.27;71.76
75940;BME280;75809;44.872;20.642;2024-03-07T02:28:36;100251.47;;;9.31;72.07
75940;BME280;75809;44.872;20.642;2024-03-07T02:31:01;100252.66;;;9.25;72.43
75940;BME280;75809;44.872;20.642;2024-03-07T02:33:27;100256.16;;;9.25;72.35
75940;BME280;75809;44.872;20.642;2024-03-07T02:35:52;100242.97;;;9.25;72.15
75940;BME280;75809;44.872;20.642;2024-03-07T02:38:18;100248.06;;;9.28;72.08
75940;BME280;75809;44.872;20.642;2024-03-07T02:40:45;100242.63;;;9.32;71.79
75940;BME280;75809;44.872;20.642;2024-03-07T02:43:11;100252.13;;;9.34;71.23
75940;BME280;75809;44.872;20.642;2024-03-07T02:45:37;100238.28;;;9.31;71.39
75940;BME280;75809;44.872;20.642;2024-03-07T02:48:03;100249.00;;;9.27;71.99
75940;BME280;75809;44.872;20.642;2024-03-07T02:50:29;100254.28;;;9.27;72.55
75940;BME280;75809;44.872;20.642;2024-03-07T02:52:55;100253.00;;;9.35;71.57
75940;BME280;75809;44.872;20.642;2024-03-07T02:55:20;100256.84;;;9.29;71.82
75940;BME280;75809;44.872;20.642;2024-03-07T02:57:46;100246.47;;;9.26;72.12
75940;BME280;75809;44.872;20.642;2024-03-07T03:00:12;100246.69;;;9.21;72.26
75940;BME280;75809;44.872;20.642;2024-03-07T03:02:52;100253.66;;;9.22;72.05
75940;BME280;75809;44.872;20.642;2024-03-07T03:05:18;100249.94;;;9.11;72.30
75940;BME280;75809;44.872;20.642;2024-03-07T03:07:44;100256.81;;;9.13;72.28
75940;BME280;75809;44.872;20.642;2024-03-07T03:10:19;100251.81;;;9.09;72.26
75940;BME280;75809;44.872;20.642;2024-03-07T03:12:46;100254.53;;;9.07;71.40
75940;BME280;75809;44.872;20.642;2024-03-07T03:15:12;100257.38;;;9.03;72.16
75940;BME280;75809;44.872;20.642;2024-03-07T03:17:40;100252.81;;;9.06;71.86
75940;BME280;75809;44.872;20.642;2024-03-07T03:20:06;100251.97;;;9.06;71.86
75940;BME280;75809;44.872;20.642;2024-03-07T03:22:43;100246.19;;;8.99;72.36
75940;BME280;75809;44.872;20.642;2024-03-07T03:25:09;100254.06;;;8.99;71.90
75940;BME280;75809;44.872;20.642;2024-03-07T03:27:34;100245.91;;;9.04;71.81
75940;BME280;75809;44.872;20.642;2024-03-07T03:30:00;100253.91;;;9.02;71.39
75940;BME280;75809;44.872;20.642;2024-03-07T03:32:26;100255.94;;;8.97;71.66
75940;BME280;75809;44.872;20.642;2024-03-07T03:34:51;100264.53;;;9.01;71.51
75940;BME280;75809;44.872;20.642;2024-03-07T03:37:17;100261.97;;;8.99;71.74
75940;BME280;75809;44.872;20.642;2024-03-07T03:39:43;100256.53;;;9.02;71.57
75940;BME280;75809;44.872;20.642;2024-03-07T03:42:08;100256.53;;;9.02;71.68
75940;BME280;75809;44.872;20.642;2024-03-07T03:44:35;100261.81;;;9.02;71.38
75940;BME280;75809;44.872;20.642;2024-03-07T03:47:00;100263.50;;;9.03;71.16
75940;BME280;75809;44.872;20.642;2024-03-07T03:49:27;100260.09;;;9.01;71.38
75940;BME280;75809;44.872;20.642;2024-03-07T03:51:52;100263.44;;;9.05;70.94
75940;BME280;75809;44.872;20.642;2024-03-07T03:54:18;100258.00;;;9.08;71.25
75940;BME280;75809;44.872;20.642;2024-03-07T03:56:43;100266.94;;;9.05;71.19
75940;BME280;75809;44.872;20.642;2024-03-07T03:59:09;100260.19;;;8.99;71.36
75940;BME280;75809;44.872;20.642;2024-03-07T04:01:34;100248.81;;;8.99;71.38
75940;BME280;75809;44.872;20.642;2024-03-07T04:04:00;100261.22;;;8.97;71.39
75940;BME280;75809;44.872;20.642;2024-03-07T04:06:26;100262.47;;;8.90;71.20
75940;BME280;75809;44.872;20.642;2024-03-07T04:08:51;100230.88;;;8.90;70.80
75940;BME280;75809;44.872;20.642;2024-03-07T04:11:17;100254.75;;;8.87;70.92
75940;BME280;75809;44.872;20.642;2024-03-07T04:13:45;100260.78;;;8.89;70.32
75940;BME280;75809;44.872;20.642;2024-03-07T04:16:11;100256.63;;;8.85;70.77
75940;BME280;75809;44.872;20.642;2024-03-07T04:18:36;100262.47;;;8.90;70.21
75940;BME280;75809;44.872;20.642;2024-03-07T04:21:02;100260.19;;;8.84;70.12
75940;BME280;75809;44.872;20.642;2024-03-07T04:23:27;100263.56;;;8.86;70.19
75940;BME280;75809;44.872;20.642;2024-03-07T04:25:53;100266.22;;;8.86;70.43
75940;BME280;75809;44.872;20.642;2024-03-07T04:28:19;100264.34;;;8.88;70.40
75940;BME280;75809;44.872;20.642;2024-03-07T04:30:45;100274.03;;;8.87;70.01
75940;BME280;75809;44.872;20.642;2024-03-07T04:33:11;100267.47;;;8.79;69.97
75940;BME280;75809;44.872;20.642;2024-03-07T04:35:36;100269.16;;;8.80;70.46
75940;BME280;75809;44.872;20.642;2024-03-07T04:38:02;100269.25;;;8.78;70.29
75940;BME280;75809;44.872;20.642;2024-03-07T04:40:28;100266.53;;;8.80;70.72
75940;BME280;75809;44.872;20.642;2024-03-07T04:42:53;100273.84;;;8.75;70.59
75940;BME280;75809;44.872;20.642;2024-03-07T04:45:19;100273.84;;;8.75;70.58
75940;BME280;75809;44.872;20.642;2024-03-07T04:47:45;100279.09;;;8.75;70.49
75940;BME280;75809;44.872;20.642;2024-03-07T04:50:14;100280.25;;;8.69;71.09
75940;BME280;75809;44.872;20.642;2024-03-07T04:52:42;100286.28;;;8.71;71.33
75940;BME280;75809;44.872;20.642;2024-03-07T04:55:09;100283.75;;;8.69;71.64
75940;BME280;75809;44.872;20.642;2024-03-07T04:57:36;100284.66;;;8.68;72.24
75940;BME280;75809;44.872;20.642;2024-03-07T05:00:04;100302.34;;;8.66;72.52
75940;BME280;75809;44.872;20.642;2024-03-07T05:02:30;100288.78;;;8.57;73.18
75940;BME280;75809;44.872;20.642;2024-03-07T05:04:56;100301.09;;;8.56;73.44
75940;BME280;75809;44.872;20.642;2024-03-07T05:07:21;100295.69;;;8.59;73.12
75940;BME280;75809;44.872;20.642;2024-03-07T05:09:47;100293.38;;;8.53;72.99
75940;BME280;75809;44.872;20.642;2024-03-07T05:12:13;100302.34;;;8.49;72.63
75940;BME280;75809;44.872;20.642;2024-03-07T05:14:38;100302.84;;;8.40;73.14
75940;BME280;75809;44.872;20.642;2024-03-07T05:17:04;100296.69;;;8.39;72.67
75940;BME280;75809;44.872;20.642;2024-03-07T05:19:34;100298.22;;;8.26;72.73
75940;BME280;75809;44.872;20.642;2024-03-07T05:22:01;100295.66;;;8.25;72.63
75940;BME280;75809;44.872;20.642;2024-03-07T05:24:28;100299.84;;;8.29;73.07
75940;BME280;75809;44.872;20.642;2024-03-07T05:26:53;100307.72;;;8.29;72.61
75940;BME280;75809;44.872;20.642;2024-03-07T05:29:19;100310.69;;;8.23;72.75
75940;BME280;75809;44.872;20.642;2024-03-07T05:31:45;100313.53;;;8.18;72.98
75940;BME280;75809;44.872;20.642;2024-03-07T05:34:17;100312.38;;;8.24;72.52
75940;BME280;75809;44.872;20.642;2024-03-07T05:36:46;100318.75;;;8.20;72.66
75940;BME280;75809;44.872;20.642;2024-03-07T05:39:12;100314.38;;;8.19;73.57
75940;BME280;75809;44.872;20.642;2024-03-07T05:41:39;100306.81;;;8.12;73.13
75940;BME280;75809;44.872;20.642;2024-03-07T05:44:06;100322.75;;;8.09;73.39
75940;BME280;75809;44.872;20.642;2024-03-07T05:46:37;100318.88;;;7.99;73.39
75940;BME280;75809;44.872;20.642;2024-03-07T05:49:10;100322.19;;;8.03;73.57
75940;BME280;75809;44.872;20.642;2024-03-07T05:51:36;100331.69;;;8.05;73.76
75940;BME280;75809;44.872;20.642;2024-03-07T05:54:02;100334.56;;;8.01;73.21
75940;BME280;75809;44.872;20.642;2024-03-07T05:56:33;100337.97;;;8.03;73.48
75940;BME280;75809;44.872;20.642;2024-03-07T05:59:04;100345.94;;;8.01;73.71
75940;BME280;75809;44.872;20.642;2024-03-07T06:01:31;100335.69;;;7.95;73.86
75940;BME280;75809;44.872;20.642;2024-03-07T06:03:58;100334.84;;;7.95;72.96
75940;BME280;75809;44.872;20.642;2024-03-07T06:06:25;100326.28;;;7.91;73.72
75940;BME280;75809;44.872;20.642;2024-03-07T06:08:50;100346.97;;;7.80;73.16
75940;BME280;75809;44.872;20.642;2024-03-07T06:11:15;100345.38;;;7.76;73.55
75940;BME280;75809;44.872;20.642;2024-03-07T06:13:49;100333.66;;;7.83;74.10
75940;BME280;75809;44.872;20.642;2024-03-07T06:16:15;100341.72;;;7.80;73.92
75940;BME280;75809;44.872;20.642;2024-03-07T06:18:41;100339.50;;;7.71;74.34
75940;BME280;75809;44.872;20.642;2024-03-07T06:21:07;100355.28;;;7.71;74.20
75940;BME280;75809;44.872;20.642;2024-03-07T06:23:33;100357.75;;;7.74;74.11
75940;BME280;75809;44.872;20.642;2024-03-07T06:25:59;100356.38;;;7.67;73.53
75940;BME280;75809;44.872;20.642;2024-03-07T06:28:26;100350.31;;;7.65;74.64
75940;BME280;75809;44.872;20.642;2024-03-07T06:30:54;100318.72;;;7.66;74.36
75940;BME280;75809;44.872;20.642;2024-03-07T06:33:19;100334.75;;;7.60;74.40
75940;BME280;75809;44.872;20.642;2024-03-07T06:35:46;100356.03;;;7.56;74.07
75940;BME280;75809;44.872;20.642;2024-03-07T06:38:12;100347.97;;;7.59;73.96
75940;BME280;75809;44.872;20.642;2024-03-07T06:40:39;100350.25;;;7.47;73.99
75940;BME280;75809;44.872;20.642;2024-03-07T06:43:08;100345.41;;;7.38;73.56
75940;BME280;75809;44.872;20.642;2024-03-07T06:45:39;100369.69;;;7.43;74.02
75940;BME280;75809;44.872;20.642;2024-03-07T06:48:05;100355.06;;;7.38;73.87
75940;BME280;75809;44.872;20.642;2024-03-07T06:50:35;100348.97;;;7.37;73.04
75940;BME280;75809;44.872;20.642;2024-03-07T06:53:02;100347.38;;;7.33;73.52
75940;BME280;75809;44.872;20.642;2024-03-07T06:55:27;100345.22;;;7.24;73.93
75940;BME280;75809;44.872;20.642;2024-03-07T06:57:53;100383.03;;;7.20;74.01
75940;BME280;75809;44.872;20.642;2024-03-07T07:00:19;100367.00;;;7.26;74.03
75940;BME280;75809;44.872;20.642;2024-03-07T07:02:46;100372.25;;;7.26;74.19
75940;BME280;75809;44.872;20.642;2024-03-07T07:05:12;100381.06;;;7.25;75.13
75940;BME280;75809;44.872;20.642;2024-03-07T07:07:44;100388.72;;;7.30;74.68
75940;BME280;75809;44.872;20.642;2024-03-07T07:10:11;100387.09;;;7.27;74.73
75940;BME280;75809;44.872;20.642;2024-03-07T07:12:47;100390.56;;;7.28;75.23
75940;BME280;75809;44.872;20.642;2024-03-07T07:15:15;100402.25;;;7.20;75.24
75940;BME280;75809;44.872;20.642;2024-03-07T07:17:42;100396.69;;;7.28;75.28
75940;BME280;75809;44.872;20.642;2024-03-07T07:20:10;100393.13;;;7.29;74.26
75940;BME280;75809;44.872;20.642;2024-03-07T07:22:39;100408.75;;;7.32;74.66
75940;BME280;75809;44.872;20.642;2024-03-07T07:25:05;100405.06;;;7.36;74.76
75940;BME280;75809;44.872;20.642;2024-03-07T07:27:39;100404.41;;;7.31;75.35
75940;BME280;75809;44.872;20.642;2024-03-07T07:30:06;100421.50;;;7.21;75.71
75940;BME280;75809;44.872;20.642;2024-03-07T07:32:32;100402.19;;;7.22;74.74
75940;BME280;75809;44.872;20.642;2024-03-07T07:34:59;100410.03;;;7.23;74.40
75940;BME280;75809;44.872;20.642;2024-03-07T07:37:24;100413.44;;;7.25;74.40
75940;BME280;75809;44.872;20.642;2024-03-07T07:39:50;100437.16;;;7.24;74.15
75940;BME280;75809;44.872;20.642;2024-03-07T07:42:16;100419.81;;;7.20;74.65
75940;BME280;75809;44.872;20.642;2024-03-07T07:44:41;100423.41;;;7.17;74.46
75940;BME280;75809;44.872;20.642;2024-03-07T07:47:09;100432.88;;;7.21;74.76
75940;BME280;75809;44.872;20.642;2024-03-07T07:49:37;100427.50;;;7.24;73.64
75940;BME280;75809;44.872;20.642;2024-03-07T07:52:04;100429.47;;;7.19;74.14
75940;BME280;75809;44.872;20.642;2024-03-07T07:54:30;100446.06;;;7.20;73.54
75940;BME280;75809;44.872;20.642;2024-03-07T07:56:55;100434.56;;;7.22;73.98
75940;BME280;75809;44.872;20.642;2024-03-07T07:59:21;100447.47;;;7.08;74.39
75940;BME280;75809;44.872;20.642;2024-03-07T08:01:46;100440.25;;;7.13;74.23
75940;BME280;75809;44.872;20.642;2024-03-07T08:04:12;100449.75;;;7.16;73.75
75940;BME280;75809;44.872;20.642;2024-03-07T08:06:37;100455.72;;;7.19;75.13
75940;BME280;75809;44.872;20.642;2024-03-07T08:09:03;100448.50;;;7.24;74.15
75940;BME280;75809;44.872;20.642;2024-03-07T08:11:32;100441.19;;;7.31;73.36
75940;BME280;75809;44.872;20.642;2024-03-07T08:13:58;100437.59;;;7.34;72.92
75940;BME280;75809;44.872;20.642;2024-03-07T08:16:23;100439.03;;;7.41;73.22
75940;BME280;75809;44.872;20.642;2024-03-07T08:18:49;100450.13;;;7.47;72.34
75940;BME280;75809;44.872;20.642;2024-03-07T08:21:14;100453.28;;;7.56;72.40
75940;BME280;75809;44.872;20.642;2024-03-07T08:23:40;100454.59;;;7.45;71.57
75940;BME280;75809;44.872;20.642;2024-03-07T08:26:06;100441.31;;;7.48;71.75
75940;BME280;75809;44.872;20.642;2024-03-07T08:28:31;100446.84;;;7.42;72.19
75940;BME280;75809;44.872;20.642;2024-03-07T08:30:57;100452.91;;;7.44;71.92
75940;BME280;75809;44.872;20.642;2024-03-07T08:33:24;100464.81;;;7.51;72.39
75940;BME280;75809;44.872;20.642;2024-03-07T08:35:49;100453.19;;;7.57;71.91
75940;BME280;75809;44.872;20.642;2024-03-07T08:38:18;100448.00;;;7.56;71.51
75940;BME280;75809;44.872;20.642;2024-03-07T08:40:44;100448.00;;;7.56;71.59
75940;BME280;75809;44.872;20.642;2024-03-07T08:43:09;100461.34;;;7.51;71.90
75940;BME280;75809;44.872;20.642;2024-03-07T08:45:35;100453.88;;;7.42;72.01
75940;BME280;75809;44.872;20.642;2024-03-07T08:48:01;100472.72;;;7.31;72.56
75940;BME280;75809;44.872;20.642;2024-03-07T08:50:29;100469.19;;;7.32;72.55
75940;BME280;75809;44.872;20.642;2024-03-07T08:52:55;100469.19;;;7.32;72.92
75940;BME280;75809;44.872;20.642;2024-03-07T08:55:23;100475.50;;;7.28;72.26
75940;BME280;75809;44.872;20.642;2024-03-07T08:57:50;100483.97;;;7.35;72.80
75940;BME280;75809;44.872;20.642;2024-03-07T09:00:17;100463.75;;;7.37;73.00
75940;BME280;75809;44.872;20.642;2024-03-07T09:02:50;100488.50;;;7.31;72.29
75940;BME280;75809;44.872;20.642;2024-03-07T09:05:17;100472.19;;;7.23;73.06
75940;BME280;75809;44.872;20.642;2024-03-07T09:07:43;100473.13;;;7.22;73.03
75940;BME280;75809;44.872;20.642;2024-03-07T09:10:10;100485.78;;;7.33;73.14
75940;BME280;75809;44.872;20.642;2024-03-07T09:12:36;100479.75;;;7.31;73.30
75940;BME280;75809;44.872;20.642;2024-03-07T09:15:04;100477.19;;;7.29;72.92
75940;BME280;75809;44.872;20.642;2024-03-07T09:17:29;100481.75;;;7.25;72.62
75940;BME280;75809;44.872;20.642;2024-03-07T09:19:55;100486.16;;;7.25;73.53
75940;BME280;75809;44.872;20.642;2024-03-07T09:22:20;100473.78;;;7.27;73.60
75940;BME280;75809;44.872;20.642;2024-03-07T09:24:46;100477.19;;;7.29;73.73
75940;BME280;75809;44.872;20.642;2024-03-07T09:27:11;100468.69;;;7.24;73.21
75940;BME280;75809;44.872;20.642;2024-03-07T09:29:40;100492.97;;;7.29;73.68
75940;BME280;75809;44.872;20.642;2024-03-07T09:32:06;100485.16;;;7.28;73.31
75940;BME280;75809;44.872;20.642;2024-03-07T09:34:34;100480.03;;;7.24;73.13
75940;BME280;75809;44.872;20.642;2024-03-07T09:37:01;100494.53;;;7.33;73.42
75940;BME280;75809;44.872;20.642;2024-03-07T09:39:27;100487.38;;;7.16;74.15
75940;BME280;75809;44.872;20.642;2024-03-07T09:41:53;100484.16;;;7.30;73.44
75940;BME280;75809;44.872;20.642;2024-03-07T09:44:21;100478.06;;;7.30;73.92
75940;BME280;75809;44.872;20.642;2024-03-07T09:46:50;100496.38;;;7.31;73.16
75940;BME280;75809;44.872;20.642;2024-03-07T09:49:16;100491.84;;;7.14;74.14
75940;BME280;75809;44.872;20.642;2024-03-07T09:51:43;100493.22;;;7.23;74.25
75940;BME280;75809;44.872;20.642;2024-03-07T09:54:10;100498.88;;;7.34;74.19
75940;BME280;75809;44.872;20.642;2024-03-07T09:56:36;100495.72;;;7.46;73.76
75940;BME280;75809;44.872;20.642;2024-03-07T09:59:03;100472.72;;;7.51;72.66
75940;BME280;75809;44.872;20.642;2024-03-07T10:01:32;100479.41;;;7.59;72.78
75940;BME280;75809;44.872;20.642;2024-03-07T10:04:00;100495.72;;;7.46;72.75
75940;BME280;75809;44.872;20.642;2024-03-07T10:06:41;100499.59;;;7.58;73.04
75940;BME280;75809;44.872;20.642;2024-03-07T10:09:07;100486.22;;;7.63;72.57
75940;BME280;75809;44.872;20.642;2024-03-07T10:11:33;100490.63;;;7.62;72.81
75940;BME280;75809;44.872;20.642;2024-03-07T10:13:59;100490.81;;;7.78;71.81
75940;BME280;75809;44.872;20.642;2024-03-07T10:16:25;100482.31;;;8.65;70.38
75940;BME280;75809;44.872;20.642;2024-03-07T10:18:51;100497.84;;;9.06;68.70
75940;BME280;75809;44.872;20.642;2024-03-07T10:21:20;100476.44;;;9.47;67.00
75940;BME280;75809;44.872;20.642;2024-03-07T10:23:46;100486.94;;;9.64;65.96
75940;BME280;75809;44.872;20.642;2024-03-07T10:26:12;100500.44;;;9.91;64.94
75940;BME280;75809;44.872;20.642;2024-03-07T10:28:38;100492.09;;;9.33;65.31
75940;BME280;75809;44.872;20.642;2024-03-07T10:31:04;100501.97;;;8.94;66.55
75940;BME280;75809;44.872;20.642;2024-03-07T10:33:40;100504.75;;;8.55;68.21
75940;BME280;75809;44.872;20.642;2024-03-07T10:36:05;100499.72;;;8.32;69.27
75940;BME280;75809;44.872;20.642;2024-03-07T10:38:36;100501.19;;;8.19;69.58
75940;BME280;75809;44.872;20.642;2024-03-07T10:41:02;100494.94;;;8.02;69.50
75940;BME280;75809;44.872;20.642;2024-03-07T10:43:29;100508.69;;;7.70;70.90
75940;BME280;75809;44.872;20.642;2024-03-07T10:45:57;100507.56;;;7.75;71.86
75940;BME280;75809;44.872;20.642;2024-03-07T10:48:29;100483.84;;;7.77;70.65
75940;BME280;75809;44.872;20.642;2024-03-07T10:56:18;100510.63;;;7.66;72.40
75940;BME280;75809;44.872;20.642;2024-03-07T10:58:58;100494.25;;;7.60;71.72
75940;BME280;75809;44.872;20.642;2024-03-07T11:01:30;100506.63;;;7.58;71.72
75940;BME280;75809;44.872;20.642;2024-03-07T11:03:57;100480.53;;;7.53;71.95
75940;BME280;75809;44.872;20.642;2024-03-07T11:06:25;100480.66;;;7.50;72.60
75940;BME280;75809;44.872;20.642;2024-03-07T11:08:52;100513.44;;;7.41;71.97
75940;BME280;75809;44.872;20.642;2024-03-07T11:11:18;100498.84;;;7.54;72.22
75940;BME280;75809;44.872;20.642;2024-03-07T11:13:45;100518.47;;;7.47;73.20
75940;BME280;75809;44.872;20.642;2024-03-07T11:16:12;100514.91;;;7.48;72.91
75940;BME280;75809;44.872;20.642;2024-03-07T11:18:40;100481.44;;;7.52;71.79
75940;BME280;75809;44.872;20.642;2024-03-07T11:21:05;100508.50;;;7.54;71.70
75940;BME280;75809;44.872;20.642;2024-03-07T11:23:33;100525.41;;;7.48;71.84
75940;BME280;75809;44.872;20.642;2024-03-07T11:26:04;100505.38;;;7.46;71.99
75940;BME280;75809;44.872;20.642;2024-03-07T11:28:34;100511.34;;;7.49;71.97
75940;BME280;75809;44.872;20.642;2024-03-07T11:31:15;100510.75;;;7.43;71.98
75940;BME280;75809;44.872;20.642;2024-03-07T11:34:15;100514.31;;;7.42;72.51
75940;BME280;75809;44.872;20.642;2024-03-07T11:36:47;100506.94;;;7.50;71.12
75940;BME280;75809;44.872;20.642;2024-03-07T11:39:53;100517.25;;;7.54;71.94
75940;BME280;75809;44.872;20.642;2024-03-07T11:42:28;100521.59;;;7.56;71.67
75940;BME280;75809;44.872;20.642;2024-03-07T11:44:57;100499.91;;;7.50;72.06
75940;BME280;75809;44.872;20.642;2024-03-07T11:47:34;100521.00;;;7.49;72.39
75940;BME280;75809;44.872;20.642;2024-03-07T11:50:01;100506.50;;;7.40;72.21
75940;BME280;75809;44.872;20.642;2024-03-07T11:52:27;100509.91;;;7.42;72.27
75940;BME280;75809;44.872;20.642;2024-03-07T11:54:53;100511.50;;;7.46;73.18
75940;BME280;75809;44.872;20.642;2024-03-07T11:57:19;100522.78;;;7.48;73.24
75940;BME280;75809;44.872;20.642;2024-03-07T11:59:45;100526.91;;;7.54;72.28
75940;BME280;75809;44.872;20.642;2024-03-07T12:02:12;100520.63;;;7.58;72.69
75940;BME280;75809;44.872;20.642;2024-03-07T12:04:40;100525.03;;;7.58;72.07
75940;BME280;75809;44.872;20.642;2024-03-07T12:07:06;100525.66;;;7.63;72.01
75940;BME280;75809;44.872;20.642;2024-03-07T12:09:32;100516.06;;;7.62;71.78
75940;BME280;75809;44.872;20.642;2024-03-07T12:12:02;100511.09;;;7.56;71.72
75940;BME280;75809;44.872;20.642;2024-03-07T12:14:27;100515.34;;;7.58;72.32
75940;BME280;75809;44.872;20.642;2024-03-07T12:16:53;100524.16;;;7.57;72.29
75940;BME280;75809;44.872;20.642;2024-03-07T12:19:18;100515.03;;;7.45;72.05
75940;BME280;75809;44.872;20.642;2024-03-07T12:21:46;100518.00;;;7.38;71.91
75940;BME280;75809;44.872;20.642;2024-03-07T12:24:14;100519.69;;;7.39;71.10
75940;BME280;75809;44.872;20.642;2024-03-07T12:26:40;100532.53;;;7.46;72.30
75940;BME280;75809;44.872;20.642;2024-03-07T12:29:11;100528.91;;;7.49;71.90
75940;BME280;75809;44.872;20.642;2024-03-07T12:31:41;100522.94;;;7.45;71.81
75940;BME280;75809;44.872;20.642;2024-03-07T12:34:07;100521.59;;;7.56;71.45
75940;BME280;75809;44.872;20.642;2024-03-07T12:36:35;100525.28;;;7.51;71.33
75940;BME280;75809;44.872;20.642;2024-03-07T12:39:33;100523.56;;;7.50;71.91
75940;BME280;75809;44.872;20.642;2024-03-07T12:42:05;100526.00;;;7.55;71.83
75940;BME280;75809;44.872;20.642;2024-03-07T12:44:45;100537.38;;;7.56;71.61
75940;BME280;75809;44.872;20.642;2024-03-07T12:47:15;100529.88;;;7.46;70.77
75940;BME280;75809;44.872;20.642;2024-03-07T12:49:44;100539.19;;;7.53;71.81
75940;BME280;75809;44.872;20.642;2024-03-07T12:52:11;100547.75;;;7.59;71.35
75940;BME280;75809;44.872;20.642;2024-03-07T12:54:41;100537.81;;;7.65;70.63
75940;BME280;75809;44.872;20.642;2024-03-07T12:57:10;100527.50;;;7.61;70.96